sensor_id;sensor_type;location;lat;lon;timestamp;P1;durP1;ratioP1;P2;durP2;ratioP2
60975;SDS011;46849;48.154;17.042;2022-08-04T00:02:17;2.63;;;1.05;;
60975;SDS011;46849;48.154;17.042;2022-08-04T00:05:22;1.10;;;0.90;;
60975;SDS011;46849;48.154;17.042;2022-08-04T00:11:22;1.80;;;1.00;;
60975;SDS011;46849;48.154;17.042;2022-08-04T00:14:13;1.75;;;0.93;;
60975;SDS011;46849;48.154;17.042;2022-08-04T00:16:59;1.77;;;1.20;;
60975;SDS011;46849;48.154;17.042;2022-08-04T00:19:48;1.50;;;1.20;;
60975;SDS011;46849;48.154;17.042;2022-08-04T00:22:38;2.40;;;0.90;;
60975;SDS011;46849;48.154;17.042;2022-08-04T00:25:27;1.45;;;1.00;;
60975;SDS011;46849;48.154;17.042;2022-08-04T00:28:12;1.40;;;0.98;;
60975;SDS011;46849;48.154;17.042;2022-08-04T00:30:57;1.48;;;1.15;;
60975;SDS011;46849;48.154;17.042;2022-08-04T00:33:43;1.35;;;1.08;;
60975;SDS011;46849;48.154;17.042;2022-08-04T00:36:30;1.70;;;1.30;;
60975;SDS011;46849;48.154;17.042;2022-08-04T00:39:15;1.48;;;0.90;;
60975;SDS011;46849;48.154;17.042;2022-08-04T00:45:25;2.35;;;1.15;;
60975;SDS011;46849;48.154;17.042;2022-08-04T00:51:34;1.00;;;0.90;;
60975;SDS011;46849;48.154;17.042;2022-08-04T01:00:23;2.05;;;1.20;;
60975;SDS011;46849;48.154;17.042;2022-08-04T01:09:01;1.40;;;1.10;;
60975;SDS011;46849;48.154;17.042;2022-08-04T01:12:07;1.60;;;1.00;;
60975;SDS011;46849;48.154;17.042;2022-08-04T01:15:16;0.90;;;0.80;;
60975;SDS011;46849;48.154;17.042;2022-08-04T01:18:07;1.88;;;1.05;;
60975;SDS011;46849;48.154;17.042;2022-08-04T01:29:39;1.80;;;0.95;;
60975;SDS011;46849;48.154;17.042;2022-08-04T01:32:35;1.40;;;1.20;;
60975;SDS011;46849;48.154;17.042;2022-08-04T01:35:30;1.38;;;1.02;;
60975;SDS011;46849;48.154;17.042;2022-08-04T01:38:34;1.52;;;1.42;;
60975;SDS011;46849;48.154;17.042;2022-08-04T01:41:20;1.40;;;1.02;;
60975;SDS011;46849;48.154;17.042;2022-08-04T01:44:06;1.40;;;1.13;;
60975;SDS011;46849;48.154;17.042;2022-08-04T01:46:54;1.58;;;1.08;;
60975;SDS011;46849;48.154;17.042;2022-08-04T01:49:38;1.70;;;0.98;;
60975;SDS011;46849;48.154;17.042;2022-08-04T01:52:26;1.17;;;1.00;;
60975;SDS011;46849;48.154;17.042;2022-08-04T01:55:12;1.50;;;1.05;;
60975;SDS011;46849;48.154;17.042;2022-08-04T01:57:59;1.75;;;1.10;;
60975;SDS011;46849;48.154;17.042;2022-08-04T02:00:48;1.70;;;1.00;;
60975;SDS011;46849;48.154;17.042;2022-08-04T02:03:43;1.77;;;1.20;;
60975;SDS011;46849;48.154;17.042;2022-08-04T02:06:36;1.45;;;1.00;;
60975;SDS011;46849;48.154;17.042;2022-08-04T02:16:15;1.10;;;0.90;;
60975;SDS011;46849;48.154;17.042;2022-08-04T02:22:15;1.42;;;0.90;;
60975;SDS011;46849;48.154;17.042;2022-08-04T02:25:05;1.35;;;0.90;;
60975;SDS011;46849;48.154;17.042;2022-08-04T02:33:36;2.08;;;1.23;;
60975;SDS011;46849;48.154;17.042;2022-08-04T02:36:34;1.73;;;1.05;;
60975;SDS011;46849;48.154;17.042;2022-08-04T02:39:22;2.03;;;1.10;;
60975;SDS011;46849;48.154;17.042;2022-08-04T02:42:06;1.55;;;1.17;;
60975;SDS011;46849;48.154;17.042;2022-08-04T02:44:51;1.42;;;1.00;;
60975;SDS011;46849;48.154;17.042;2022-08-04T02:47:40;2.58;;;1.10;;
60975;SDS011;46849;48.154;17.042;2022-08-04T02:50:26;1.70;;;1.02;;
60975;SDS011;46849;48.154;17.042;2022-08-04T02:53:13;1.95;;;1.20;;
60975;SDS011;46849;48.154;17.042;2022-08-04T02:56:01;1.52;;;1.10;;
60975;SDS011;46849;48.154;17.042;2022-08-04T02:58:59;2.55;;;1.40;;
60975;SDS011;46849;48.154;17.042;2022-08-04T03:01:55;2.05;;;1.42;;
60975;SDS011;46849;48.154;17.042;2022-08-04T03:04:52;4.60;;;1.38;;
60975;SDS011;46849;48.154;17.042;2022-08-04T03:25:52;2.45;;;1.58;;
60975;SDS011;46849;48.154;17.042;2022-08-04T03:28:50;2.08;;;1.58;;
60975;SDS011;46849;48.154;17.042;2022-08-04T03:35:02;3.65;;;1.48;;
60975;SDS011;46849;48.154;17.042;2022-08-04T03:38:02;2.88;;;1.60;;
60975;SDS011;46849;48.154;17.042;2022-08-04T04:00:17;3.42;;;1.65;;
60975;SDS011;46849;48.154;17.042;2022-08-04T04:13:12;2.97;;;2.00;;
60975;SDS011;46849;48.154;17.042;2022-08-04T04:16:19;2.95;;;1.80;;
60975;SDS011;46849;48.154;17.042;2022-08-04T04:22:23;3.58;;;1.83;;
60975;SDS011;46849;48.154;17.042;2022-08-04T04:25:48;2.55;;;1.70;;
60975;SDS011;46849;48.154;17.042;2022-08-04T04:35:21;3.50;;;2.15;;
60975;SDS011;46849;48.154;17.042;2022-08-04T04:44:04;2.43;;;1.93;;
60975;SDS011;46849;48.154;17.042;2022-08-04T04:47:10;2.67;;;2.00;;
60975;SDS011;46849;48.154;17.042;2022-08-04T04:50:12;3.38;;;1.88;;
60975;SDS011;46849;48.154;17.042;2022-08-04T04:53:03;3.50;;;1.90;;
60975;SDS011;46849;48.154;17.042;2022-08-04T04:56:02;3.55;;;2.20;;
60975;SDS011;46849;48.154;17.042;2022-08-04T04:58:53;5.72;;;2.00;;
60975;SDS011;46849;48.154;17.042;2022-08-04T05:14:03;3.80;;;2.28;;
60975;SDS011;46849;48.154;17.042;2022-08-04T05:22:53;2.72;;;2.03;;
60975;SDS011;46849;48.154;17.042;2022-08-04T05:28:42;3.17;;;2.15;;
60975;SDS011;46849;48.154;17.042;2022-08-04T05:31:36;2.90;;;2.05;;
60975;SDS011;46849;48.154;17.042;2022-08-04T05:34:28;2.72;;;2.05;;
60975;SDS011;46849;48.154;17.042;2022-08-04T05:37:18;3.22;;;2.30;;
60975;SDS011;46849;48.154;17.042;2022-08-04T05:40:06;2.75;;;2.03;;
60975;SDS011;46849;48.154;17.042;2022-08-04T05:42:52;3.50;;;2.40;;
60975;SDS011;46849;48.154;17.042;2022-08-04T05:45:39;5.88;;;2.42;;
60975;SDS011;46849;48.154;17.042;2022-08-04T05:48:25;6.75;;;3.25;;
60975;SDS011;46849;48.154;17.042;2022-08-04T05:51:11;2.78;;;2.38;;
60975;SDS011;46849;48.154;17.042;2022-08-04T05:53:58;5.90;;;2.83;;
60975;SDS011;46849;48.154;17.042;2022-08-04T05:56:45;6.38;;;3.17;;
60975;SDS011;46849;48.154;17.042;2022-08-04T05:59:31;2.90;;;2.13;;
60975;SDS011;46849;48.154;17.042;2022-08-04T06:02:17;5.15;;;2.67;;
60975;SDS011;46849;48.154;17.042;2022-08-04T06:05:04;5.13;;;2.75;;
60975;SDS011;46849;48.154;17.042;2022-08-04T06:07:51;3.95;;;2.40;;
60975;SDS011;46849;48.154;17.042;2022-08-04T06:10:36;3.65;;;2.30;;
60975;SDS011;46849;48.154;17.042;2022-08-04T06:13:29;3.80;;;2.22;;
60975;SDS011;46849;48.154;17.042;2022-08-04T06:16:22;6.20;;;2.65;;
60975;SDS011;46849;48.154;17.042;2022-08-04T06:19:10;3.60;;;2.50;;
60975;SDS011;46849;48.154;17.042;2022-08-04T06:21:56;4.43;;;3.00;;
60975;SDS011;46849;48.154;17.042;2022-08-04T06:24:44;3.97;;;2.92;;
60975;SDS011;46849;48.154;17.042;2022-08-04T06:27:31;5.25;;;2.83;;
60975;SDS011;46849;48.154;17.042;2022-08-04T06:30:17;5.00;;;2.25;;
60975;SDS011;46849;48.154;17.042;2022-08-04T06:33:02;4.78;;;2.20;;
60975;SDS011;46849;48.154;17.042;2022-08-04T06:35:57;2.92;;;2.30;;
60975;SDS011;46849;48.154;17.042;2022-08-04T06:38:43;2.88;;;2.40;;
60975;SDS011;46849;48.154;17.042;2022-08-04T06:41:29;2.55;;;2.15;;
60975;SDS011;46849;48.154;17.042;2022-08-04T06:44:14;3.35;;;2.13;;
60975;SDS011;46849;48.154;17.042;2022-08-04T06:47:00;4.38;;;2.20;;
60975;SDS011;46849;48.154;17.042;2022-08-04T06:49:50;4.35;;;2.20;;
60975;SDS011;46849;48.154;17.042;2022-08-04T06:52:37;4.50;;;1.83;;
60975;SDS011;46849;48.154;17.042;2022-08-04T06:55:22;6.05;;;2.45;;
60975;SDS011;46849;48.154;17.042;2022-08-04T06:58:08;3.00;;;2.10;;
60975;SDS011;46849;48.154;17.042;2022-08-04T07:00:53;2.55;;;2.00;;
60975;SDS011;46849;48.154;17.042;2022-08-04T07:03:44;3.88;;;2.08;;
60975;SDS011;46849;48.154;17.042;2022-08-04T07:06:31;5.85;;;2.40;;
60975;SDS011;46849;48.154;17.042;2022-08-04T07:09:16;2.60;;;1.80;;
60975;SDS011;46849;48.154;17.042;2022-08-04T07:12:02;2.45;;;2.00;;
60975;SDS011;46849;48.154;17.042;2022-08-04T07:14:47;4.05;;;1.77;;
60975;SDS011;46849;48.154;17.042;2022-08-04T07:17:36;2.58;;;1.70;;
60975;SDS011;46849;48.154;17.042;2022-08-04T07:20:21;5.68;;;2.67;;
60975;SDS011;46849;48.154;17.042;2022-08-04T07:23:06;5.38;;;2.28;;
60975;SDS011;46849;48.154;17.042;2022-08-04T07:25:53;6.65;;;3.88;;
60975;SDS011;46849;48.154;17.042;2022-08-04T07:28:40;5.28;;;2.08;;
60975;SDS011;46849;48.154;17.042;2022-08-04T07:31:24;4.05;;;2.33;;
60975;SDS011;46849;48.154;17.042;2022-08-04T07:34:10;4.32;;;2.28;;
60975;SDS011;46849;48.154;17.042;2022-08-04T07:36:57;5.32;;;1.98;;
60975;SDS011;46849;48.154;17.042;2022-08-04T07:39:43;4.40;;;2.20;;
60975;SDS011;46849;48.154;17.042;2022-08-04T07:42:28;3.17;;;2.35;;
60975;SDS011;46849;48.154;17.042;2022-08-04T07:45:13;3.45;;;1.95;;
60975;SDS011;46849;48.154;17.042;2022-08-04T07:48:04;4.57;;;1.92;;
60975;SDS011;46849;48.154;17.042;2022-08-04T07:50:50;2.85;;;2.00;;
60975;SDS011;46849;48.154;17.042;2022-08-04T07:53:38;2.40;;;1.70;;
60975;SDS011;46849;48.154;17.042;2022-08-04T07:56:24;2.40;;;1.70;;
60975;SDS011;46849;48.154;17.042;2022-08-04T07:59:09;3.30;;;2.05;;
60975;SDS011;46849;48.154;17.042;2022-08-04T08:01:57;6.32;;;2.00;;
60975;SDS011;46849;48.154;17.042;2022-08-04T08:04:45;3.33;;;2.08;;
60975;SDS011;46849;48.154;17.042;2022-08-04T08:07:30;3.35;;;2.28;;
60975;SDS011;46849;48.154;17.042;2022-08-04T08:10:15;5.53;;;2.10;;
60975;SDS011;46849;48.154;17.042;2022-08-04T08:13:02;3.30;;;1.67;;
60975;SDS011;46849;48.154;17.042;2022-08-04T08:15:47;2.70;;;2.10;;
60975;SDS011;46849;48.154;17.042;2022-08-04T08:18:32;5.13;;;2.30;;
60975;SDS011;46849;48.154;17.042;2022-08-04T08:21:20;2.92;;;2.20;;
60975;SDS011;46849;48.154;17.042;2022-08-04T08:24:06;2.80;;;1.90;;
60975;SDS011;46849;48.154;17.042;2022-08-04T08:26:52;4.22;;;1.80;;
60975;SDS011;46849;48.154;17.042;2022-08-04T08:29:38;7.72;;;3.03;;
60975;SDS011;46849;48.154;17.042;2022-08-04T08:32:26;4.78;;;2.30;;
60975;SDS011;46849;48.154;17.042;2022-08-04T08:35:11;3.72;;;1.92;;
60975;SDS011;46849;48.154;17.042;2022-08-04T08:37:56;2.70;;;1.80;;
60975;SDS011;46849;48.154;17.042;2022-08-04T08:40:48;3.28;;;2.10;;
60975;SDS011;46849;48.154;17.042;2022-08-04T08:47:17;2.30;;;1.85;;
60975;SDS011;46849;48.154;17.042;2022-08-04T08:53:25;2.88;;;2.00;;
60975;SDS011;46849;48.154;17.042;2022-08-04T08:56:31;2.20;;;1.67;;
60975;SDS011;46849;48.154;17.042;2022-08-04T09:09:20;2.58;;;1.40;;
60975;SDS011;46849;48.154;17.042;2022-08-04T09:27:39;3.83;;;1.50;;
60975;SDS011;46849;48.154;17.042;2022-08-04T09:30:45;5.57;;;1.98;;
60975;SDS011;46849;48.154;17.042;2022-08-04T09:33:58;2.67;;;1.67;;
60975;SDS011;46849;48.154;17.042;2022-08-04T09:37:00;2.00;;;1.50;;
60975;SDS011;46849;48.154;17.042;2022-08-04T09:52:26;2.30;;;1.38;;
60975;SDS011;46849;48.154;17.042;2022-08-04T10:01:41;2.42;;;1.10;;
60975;SDS011;46849;48.154;17.042;2022-08-04T10:04:29;3.72;;;1.27;;
60975;SDS011;46849;48.154;17.042;2022-08-04T10:10:39;2.13;;;1.60;;
60975;SDS011;46849;48.154;17.042;2022-08-04T10:19:34;1.90;;;1.17;;
60975;SDS011;46849;48.154;17.042;2022-08-04T10:22:25;1.45;;;1.23;;
60975;SDS011;46849;48.154;17.042;2022-08-04T10:28:11;1.77;;;1.20;;
60975;SDS011;46849;48.154;17.042;2022-08-04T10:31:02;2.10;;;1.25;;
60975;SDS011;46849;48.154;17.042;2022-08-04T10:34:01;2.45;;;1.10;;
60975;SDS011;46849;48.154;17.042;2022-08-04T10:36:58;1.90;;;1.10;;
60975;SDS011;46849;48.154;17.042;2022-08-04T10:39:58;1.63;;;1.08;;
60975;SDS011;46849;48.154;17.042;2022-08-04T10:43:16;2.38;;;0.98;;
60975;SDS011;46849;48.154;17.042;2022-08-04T10:48:58;1.77;;;0.82;;
60975;SDS011;46849;48.154;17.042;2022-08-04T10:54:40;3.08;;;1.25;;
60975;SDS011;46849;48.154;17.042;2022-08-04T11:00:35;3.85;;;1.30;;
60975;SDS011;46849;48.154;17.042;2022-08-04T11:03:23;4.82;;;1.23;;
60975;SDS011;46849;48.154;17.042;2022-08-04T11:06:14;1.50;;;1.00;;
60975;SDS011;46849;48.154;17.042;2022-08-04T11:09:00;2.42;;;1.10;;
60975;SDS011;46849;48.154;17.042;2022-08-04T11:15:20;2.22;;;0.88;;
60975;SDS011;46849;48.154;17.042;2022-08-04T11:18:09;2.90;;;1.00;;
60975;SDS011;46849;48.154;17.042;2022-08-04T11:21:19;2.42;;;1.30;;
60975;SDS011;46849;48.154;17.042;2022-08-04T11:27:15;2.88;;;1.02;;
60975;SDS011;46849;48.154;17.042;2022-08-04T11:30:08;1.48;;;0.88;;
60975;SDS011;46849;48.154;17.042;2022-08-04T11:36:29;1.00;;;0.73;;
60975;SDS011;46849;48.154;17.042;2022-08-04T11:39:33;1.00;;;0.73;;
60975;SDS011;46849;48.154;17.042;2022-08-04T11:42:25;1.85;;;0.82;;
60975;SDS011;46849;48.154;17.042;2022-08-04T11:45:14;1.92;;;0.82;;
60975;SDS011;46849;48.154;17.042;2022-08-04T11:48:09;1.27;;;0.93;;
60975;SDS011;46849;48.154;17.042;2022-08-04T11:50:59;1.30;;;0.90;;
60975;SDS011;46849;48.154;17.042;2022-08-04T11:53:48;1.17;;;0.80;;
60975;SDS011;46849;48.154;17.042;2022-08-04T11:56:34;0.90;;;0.80;;
60975;SDS011;46849;48.154;17.042;2022-08-04T11:59:19;1.52;;;0.90;;
60975;SDS011;46849;48.154;17.042;2022-08-04T12:05:23;2.08;;;0.90;;
60975;SDS011;46849;48.154;17.042;2022-08-04T12:11:39;1.33;;;0.93;;
60975;SDS011;46849;48.154;17.042;2022-08-04T12:14:36;1.90;;;1.20;;
60975;SDS011;46849;48.154;17.042;2022-08-04T12:17:34;0.73;;;0.55;;
60975;SDS011;46849;48.154;17.042;2022-08-04T12:20:26;1.27;;;0.82;;
60975;SDS011;46849;48.154;17.042;2022-08-04T12:23:28;1.08;;;0.75;;
60975;SDS011;46849;48.154;17.042;2022-08-04T12:26:49;1.30;;;0.80;;
60975;SDS011;46849;48.154;17.042;2022-08-04T12:29:33;0.95;;;0.70;;
60975;SDS011;46849;48.154;17.042;2022-08-04T12:38:06;1.40;;;0.90;;
60975;SDS011;46849;48.154;17.042;2022-08-04T12:40:55;2.15;;;0.70;;
60975;SDS011;46849;48.154;17.042;2022-08-04T12:43:43;0.90;;;0.60;;
60975;SDS011;46849;48.154;17.042;2022-08-04T12:46:31;0.90;;;0.68;;
60975;SDS011;46849;48.154;17.042;2022-08-04T12:49:17;1.27;;;0.80;;
60975;SDS011;46849;48.154;17.042;2022-08-04T12:52:05;1.55;;;0.88;;
60975;SDS011;46849;48.154;17.042;2022-08-04T12:54:52;1.10;;;0.68;;
60975;SDS011;46849;48.154;17.042;2022-08-04T12:57:39;1.45;;;0.70;;
60975;SDS011;46849;48.154;17.042;2022-08-04T13:00:28;1.20;;;0.73;;
60975;SDS011;46849;48.154;17.042;2022-08-04T13:03:18;1.13;;;0.80;;
60975;SDS011;46849;48.154;17.042;2022-08-04T13:06:07;1.13;;;0.75;;
60975;SDS011;46849;48.154;17.042;2022-08-04T13:08:55;2.08;;;1.27;;
60975;SDS011;46849;48.154;17.042;2022-08-04T13:11:49;2.58;;;1.00;;
60975;SDS011;46849;48.154;17.042;2022-08-04T13:14:37;2.30;;;0.90;;
60975;SDS011;46849;48.154;17.042;2022-08-04T13:17:39;1.65;;;1.08;;
60975;SDS011;46849;48.154;17.042;2022-08-04T13:20:32;1.30;;;0.80;;
60975;SDS011;46849;48.154;17.042;2022-08-04T13:23:20;1.60;;;0.80;;
60975;SDS011;46849;48.154;17.042;2022-08-04T13:26:05;4.22;;;1.00;;
60975;SDS011;46849;48.154;17.042;2022-08-04T13:28:51;3.53;;;0.90;;
60975;SDS011;46849;48.154;17.042;2022-08-04T13:31:38;1.83;;;0.90;;
60975;SDS011;46849;48.154;17.042;2022-08-04T13:34:28;3.22;;;1.10;;
60975;SDS011;46849;48.154;17.042;2022-08-04T13:37:13;2.92;;;1.10;;
60975;SDS011;46849;48.154;17.042;2022-08-04T13:39:59;0.90;;;0.70;;
60975;SDS011;46849;48.154;17.042;2022-08-04T13:42:48;1.20;;;0.80;;
60975;SDS011;46849;48.154;17.042;2022-08-04T13:45:35;0.80;;;0.80;;
60975;SDS011;46849;48.154;17.042;2022-08-04T13:48:24;1.47;;;0.90;;
60975;SDS011;46849;48.154;17.042;2022-08-04T13:51:10;2.97;;;1.00;;
60975;SDS011;46849;48.154;17.042;2022-08-04T13:53:56;1.50;;;0.95;;
60975;SDS011;46849;48.154;17.042;2022-08-04T13:56:44;1.13;;;0.90;;
60975;SDS011;46849;48.154;17.042;2022-08-04T13:59:32;1.73;;;0.70;;
60975;SDS011;46849;48.154;17.042;2022-08-04T14:05:21;1.50;;;0.75;;
60975;SDS011;46849;48.154;17.042;2022-08-04T14:08:19;1.42;;;0.73;;
60975;SDS011;46849;48.154;17.042;2022-08-04T14:11:09;1.17;;;0.90;;
60975;SDS011;46849;48.154;17.042;2022-08-04T14:13:54;1.00;;;0.80;;
60975;SDS011;46849;48.154;17.042;2022-08-04T14:16:53;0.90;;;0.80;;
60975;SDS011;46849;48.154;17.042;2022-08-04T14:19:56;3.42;;;1.45;;
60975;SDS011;46849;48.154;17.042;2022-08-04T14:22:43;1.58;;;1.02;;
60975;SDS011;46849;48.154;17.042;2022-08-04T14:25:28;2.03;;;0.90;;
60975;SDS011;46849;48.154;17.042;2022-08-04T14:28:12;0.93;;;0.65;;
60975;SDS011;46849;48.154;17.042;2022-08-04T14:31:14;1.67;;;1.02;;
60975;SDS011;46849;48.154;17.042;2022-08-04T14:34:05;2.75;;;1.00;;
60975;SDS011;46849;48.154;17.042;2022-08-04T14:36:51;2.85;;;0.85;;
60975;SDS011;46849;48.154;17.042;2022-08-04T14:39:40;2.65;;;0.90;;
60975;SDS011;46849;48.154;17.042;2022-08-04T14:42:43;2.78;;;0.70;;
60975;SDS011;46849;48.154;17.042;2022-08-04T14:48:15;1.83;;;1.00;;
60975;SDS011;46849;48.154;17.042;2022-08-04T14:51:02;2.08;;;1.40;;
60975;SDS011;46849;48.154;17.042;2022-08-04T14:53:46;1.73;;;0.90;;
60975;SDS011;46849;48.154;17.042;2022-08-04T14:56:32;4.32;;;1.30;;
60975;SDS011;46849;48.154;17.042;2022-08-04T14:59:17;1.10;;;0.98;;
60975;SDS011;46849;48.154;17.042;2022-08-04T15:02:01;2.25;;;1.05;;
60975;SDS011;46849;48.154;17.042;2022-08-04T15:04:47;2.58;;;0.80;;
60975;SDS011;46849;48.154;17.042;2022-08-04T15:07:33;1.75;;;1.20;;
60975;SDS011;46849;48.154;17.042;2022-08-04T15:10:19;1.15;;;0.98;;
60975;SDS011;46849;48.154;17.042;2022-08-04T15:13:03;5.07;;;1.42;;
60975;SDS011;46849;48.154;17.042;2022-08-04T15:15:48;2.00;;;0.95;;
60975;SDS011;46849;48.154;17.042;2022-08-04T15:18:35;1.50;;;1.08;;
60975;SDS011;46849;48.154;17.042;2022-08-04T15:21:20;2.92;;;1.10;;
60975;SDS011;46849;48.154;17.042;2022-08-04T15:24:06;2.85;;;1.10;;
60975;SDS011;46849;48.154;17.042;2022-08-04T15:26:51;1.33;;;0.77;;
60975;SDS011;46849;48.154;17.042;2022-08-04T15:29:40;2.15;;;0.88;;
60975;SDS011;46849;48.154;17.042;2022-08-04T15:32:31;1.98;;;1.00;;
60975;SDS011;46849;48.154;17.042;2022-08-04T15:35:18;1.35;;;0.90;;
60975;SDS011;46849;48.154;17.042;2022-08-04T15:38:13;1.20;;;0.90;;
60975;SDS011;46849;48.154;17.042;2022-08-04T15:41:13;1.40;;;1.00;;
60975;SDS011;46849;48.154;17.042;2022-08-04T15:44:18;2.80;;;1.17;;
60975;SDS011;46849;48.154;17.042;2022-08-04T15:47:26;1.38;;;1.00;;
60975;SDS011;46849;48.154;17.042;2022-08-04T15:50:11;2.60;;;0.90;;
60975;SDS011;46849;48.154;17.042;2022-08-04T15:55:45;2.83;;;1.20;;
60975;SDS011;46849;48.154;17.042;2022-08-04T15:58:46;1.35;;;0.95;;
60975;SDS011;46849;48.154;17.042;2022-08-04T16:01:32;1.38;;;0.90;;
60975;SDS011;46849;48.154;17.042;2022-08-04T16:04:21;4.13;;;1.20;;
60975;SDS011;46849;48.154;17.042;2022-08-04T16:07:07;2.05;;;1.13;;
60975;SDS011;46849;48.154;17.042;2022-08-04T16:09:52;3.05;;;1.20;;
60975;SDS011;46849;48.154;17.042;2022-08-04T16:15:58;2.50;;;0.98;;
60975;SDS011;46849;48.154;17.042;2022-08-04T16:18:43;1.55;;;0.90;;
60975;SDS011;46849;48.154;17.042;2022-08-04T16:21:29;1.30;;;0.90;;
60975;SDS011;46849;48.154;17.042;2022-08-04T16:27:35;2.90;;;0.98;;
60975;SDS011;46849;48.154;17.042;2022-08-04T16:30:27;1.48;;;0.98;;
60975;SDS011;46849;48.154;17.042;2022-08-04T16:33:11;1.23;;;0.90;;
60975;SDS011;46849;48.154;17.042;2022-08-04T16:35:56;2.88;;;1.85;;
60975;SDS011;46849;48.154;17.042;2022-08-04T16:39:00;3.58;;;1.40;;
60975;SDS011;46849;48.154;17.042;2022-08-04T16:41:48;1.20;;;0.85;;
60975;SDS011;46849;48.154;17.042;2022-08-04T16:44:33;3.13;;;2.15;;
60975;SDS011;46849;48.154;17.042;2022-08-04T16:47:59;1.15;;;0.80;;
60975;SDS011;46849;48.154;17.042;2022-08-04T16:50:33;2.35;;;1.08;;
60975;SDS011;46849;48.154;17.042;2022-08-04T16:53:33;1.67;;;0.90;;
60975;SDS011;46849;48.154;17.042;2022-08-04T16:56:26;2.20;;;1.10;;
60975;SDS011;46849;48.154;17.042;2022-08-04T16:59:12;1.55;;;0.93;;
60975;SDS011;46849;48.154;17.042;2022-08-04T17:01:57;2.60;;;1.30;;
60975;SDS011;46849;48.154;17.042;2022-08-04T17:04:42;1.67;;;1.00;;
60975;SDS011;46849;48.154;17.042;2022-08-04T17:07:27;1.65;;;0.95;;
60975;SDS011;46849;48.154;17.042;2022-08-04T17:10:11;1.45;;;1.15;;
60975;SDS011;46849;48.154;17.042;2022-08-04T17:12:56;2.33;;;1.17;;
60975;SDS011;46849;48.154;17.042;2022-08-04T17:15:41;1.33;;;0.88;;
60975;SDS011;46849;48.154;17.042;2022-08-04T17:24:07;1.83;;;1.23;;
60975;SDS011;46849;48.154;17.042;2022-08-04T17:26:55;4.05;;;1.60;;
60975;SDS011;46849;48.154;17.042;2022-08-04T17:29:42;1.80;;;1.00;;
60975;SDS011;46849;48.154;17.042;2022-08-04T17:32:27;1.10;;;0.90;;
60975;SDS011;46849;48.154;17.042;2022-08-04T17:35:12;2.88;;;1.00;;
60975;SDS011;46849;48.154;17.042;2022-08-04T17:37:57;1.77;;;1.08;;
60975;SDS011;46849;48.154;17.042;2022-08-04T17:40:49;1.50;;;0.93;;
60975;SDS011;46849;48.154;17.042;2022-08-04T17:43:42;1.10;;;0.85;;
60975;SDS011;46849;48.154;17.042;2022-08-04T17:49:24;2.33;;;1.02;;
60975;SDS011;46849;48.154;17.042;2022-08-04T17:52:08;2.17;;;1.10;;
60975;SDS011;46849;48.154;17.042;2022-08-04T17:55:04;1.63;;;1.17;;
60975;SDS011;46849;48.154;17.042;2022-08-04T18:01:07;1.20;;;0.90;;
60975;SDS011;46849;48.154;17.042;2022-08-04T18:03:54;3.10;;;0.95;;
60975;SDS011;46849;48.154;17.042;2022-08-04T18:06:48;2.33;;;1.30;;
60975;SDS011;46849;48.154;17.042;2022-08-04T18:09:34;1.65;;;1.05;;
60975;SDS011;46849;48.154;17.042;2022-08-04T18:15:21;2.65;;;1.33;;
60975;SDS011;46849;48.154;17.042;2022-08-04T18:18:15;1.95;;;1.42;;
60975;SDS011;46849;48.154;17.042;2022-08-04T18:21:01;2.58;;;1.02;;
60975;SDS011;46849;48.154;17.042;2022-08-04T18:23:47;1.27;;;1.00;;
60975;SDS011;46849;48.154;17.042;2022-08-04T18:26:33;4.65;;;1.40;;
60975;SDS011;46849;48.154;17.042;2022-08-04T18:29:18;2.85;;;1.27;;
60975;SDS011;46849;48.154;17.042;2022-08-04T18:32:03;2.92;;;1.15;;
60975;SDS011;46849;48.154;17.042;2022-08-04T18:34:48;2.45;;;1.20;;
60975;SDS011;46849;48.154;17.042;2022-08-04T18:37:37;1.83;;;1.40;;
60975;SDS011;46849;48.154;17.042;2022-08-04T18:40:23;1.50;;;1.10;;
60975;SDS011;46849;48.154;17.042;2022-08-04T18:43:07;2.35;;;1.05;;
60975;SDS011;46849;48.154;17.042;2022-08-04T18:45:52;2.10;;;1.42;;
60975;SDS011;46849;48.154;17.042;2022-08-04T18:48:37;1.13;;;0.90;;
60975;SDS011;46849;48.154;17.042;2022-08-04T18:51:22;2.47;;;1.15;;
60975;SDS011;46849;48.154;17.042;2022-08-04T18:54:06;2.10;;;1.13;;
60975;SDS011;46849;48.154;17.042;2022-08-04T18:56:52;2.22;;;1.10;;
60975;SDS011;46849;48.154;17.042;2022-08-04T18:59:37;5.25;;;1.83;;
60975;SDS011;46849;48.154;17.042;2022-08-04T19:02:22;2.33;;;1.40;;
60975;SDS011;46849;48.154;17.042;2022-08-04T19:05:07;4.45;;;2.67;;
60975;SDS011;46849;48.154;17.042;2022-08-04T19:07:52;3.33;;;1.50;;
60975;SDS011;46849;48.154;17.042;2022-08-04T19:10:36;2.13;;;1.38;;
60975;SDS011;46849;48.154;17.042;2022-08-04T19:13:22;4.22;;;1.38;;
60975;SDS011;46849;48.154;17.042;2022-08-04T19:16:07;2.88;;;1.58;;
60975;SDS011;46849;48.154;17.042;2022-08-04T19:18:52;2.90;;;1.48;;
60975;SDS011;46849;48.154;17.042;2022-08-04T19:21:38;2.10;;;1.52;;
60975;SDS011;46849;48.154;17.042;2022-08-04T19:24:23;3.47;;;1.88;;
60975;SDS011;46849;48.154;17.042;2022-08-04T19:27:07;3.78;;;1.35;;
60975;SDS011;46849;48.154;17.042;2022-08-04T19:29:52;2.85;;;1.85;;
60975;SDS011;46849;48.154;17.042;2022-08-04T19:32:36;2.20;;;1.20;;
60975;SDS011;46849;48.154;17.042;2022-08-04T19:35:21;3.65;;;1.27;;
60975;SDS011;46849;48.154;17.042;2022-08-04T19:38:06;3.33;;;1.67;;
60975;SDS011;46849;48.154;17.042;2022-08-04T19:40:54;2.78;;;1.20;;
60975;SDS011;46849;48.154;17.042;2022-08-04T19:43:38;4.55;;;1.15;;
60975;SDS011;46849;48.154;17.042;2022-08-04T19:46:25;2.20;;;1.20;;
60975;SDS011;46849;48.154;17.042;2022-08-04T19:49:11;2.47;;;1.38;;
60975;SDS011;46849;48.154;17.042;2022-08-04T19:51:56;2.03;;;1.30;;
60975;SDS011;46849;48.154;17.042;2022-08-04T19:54:41;2.65;;;1.20;;
60975;SDS011;46849;48.154;17.042;2022-08-04T19:57:27;2.10;;;1.35;;
60975;SDS011;46849;48.154;17.042;2022-08-04T20:00:12;1.63;;;1.10;;
60975;SDS011;46849;48.154;17.042;2022-08-04T20:02:57;2.30;;;1.40;;
60975;SDS011;46849;48.154;17.042;2022-08-04T20:05:42;2.42;;;1.40;;
60975;SDS011;46849;48.154;17.042;2022-08-04T20:08:28;3.97;;;1.30;;
60975;SDS011;46849;48.154;17.042;2022-08-04T20:11:13;2.92;;;1.00;;
60975;SDS011;46849;48.154;17.042;2022-08-04T20:13:57;3.78;;;1.52;;
60975;SDS011;46849;48.154;17.042;2022-08-04T20:16:42;2.03;;;1.15;;
60975;SDS011;46849;48.154;17.042;2022-08-04T20:19:27;2.20;;;1.42;;
60975;SDS011;46849;48.154;17.042;2022-08-04T20:22:12;3.05;;;1.17;;
60975;SDS011;46849;48.154;17.042;2022-08-04T20:24:58;4.18;;;1.35;;
60975;SDS011;46849;48.154;17.042;2022-08-04T20:27:43;4.45;;;1.60;;
60975;SDS011;46849;48.154;17.042;2022-08-04T20:30:29;1.88;;;1.20;;
60975;SDS011;46849;48.154;17.042;2022-08-04T20:33:16;2.15;;;1.13;;
60975;SDS011;46849;48.154;17.042;2022-08-04T20:36:00;4.28;;;1.40;;
60975;SDS011;46849;48.154;17.042;2022-08-04T20:38:45;1.65;;;1.20;;
60975;SDS011;46849;48.154;17.042;2022-08-04T20:41:29;2.38;;;1.27;;
60975;SDS011;46849;48.154;17.042;2022-08-04T20:44:14;1.92;;;0.90;;
60975;SDS011;46849;48.154;17.042;2022-08-04T20:46:59;2.75;;;1.65;;
60975;SDS011;46849;48.154;17.042;2022-08-04T20:49:44;2.45;;;1.38;;
60975;SDS011;46849;48.154;17.042;2022-08-04T20:52:29;3.13;;;1.30;;
60975;SDS011;46849;48.154;17.042;2022-08-04T20:55:16;4.35;;;1.30;;
60975;SDS011;46849;48.154;17.042;2022-08-04T20:58:01;1.55;;;1.02;;
60975;SDS011;46849;48.154;17.042;2022-08-04T21:00:46;1.85;;;1.10;;
60975;SDS011;46849;48.154;17.042;2022-08-04T21:03:30;2.75;;;1.33;;